createdAt,value
2023-02-19T00:01:22.323Z,35.03
2023-02-19T00:04:26.143Z,28.00
2023-02-19T00:07:30.397Z,21.73
2023-02-19T00:10:33.376Z,21.40
2023-02-19T00:13:38.539Z,20.27
2023-02-19T00:16:42.296Z,29.20
2023-02-19T00:19:46.400Z,28.08
2023-02-19T00:22:50.093Z,39.17
2023-02-19T00:25:53.592Z,33.10
2023-02-19T00:28:57.506Z,32.00
2023-02-19T00:32:00.598Z,42.83
2023-02-19T00:35:05.606Z,38.05
2023-02-19T00:38:08.908Z,76.75
2023-02-19T00:41:22.582Z,63.57
2023-02-19T00:44:26.674Z,59.15
2023-02-19T00:47:30.374Z,46.97
2023-02-19T00:50:33.949Z,50.83
2023-02-19T00:53:37.230Z,35.58
2023-02-19T00:56:40.687Z,60.78
2023-02-19T00:59:44.497Z,52.70
2023-02-19T01:02:48.077Z,42.10
2023-02-19T01:05:52.457Z,44.20
2023-02-19T01:08:55.756Z,50.45
2023-02-19T01:11:59.372Z,59.92
2023-02-19T01:15:02.857Z,74.97
2023-02-19T01:18:07.126Z,183.17
2023-02-19T01:21:15.600Z,107.63
2023-02-19T01:24:18.890Z,73.97
2023-02-19T01:27:23.034Z,51.00
2023-02-19T01:30:26.869Z,49.78
2023-02-19T01:33:31.467Z,34.97
2023-02-19T01:36:35.524Z,29.48
2023-02-19T01:39:40.463Z,27.20
2023-02-19T01:42:45.219Z,23.95
2023-02-19T01:45:48.774Z,13.32
2023-02-19T01:48:53.450Z,9.07
2023-02-19T01:52:10.624Z,9.05
2023-02-19T01:55:15.033Z,16.25
2023-02-19T01:58:18.928Z,27.40
2023-02-19T02:01:22.730Z,26.30
2023-02-19T02:04:26.765Z,19.17
2023-02-19T02:07:48.243Z,31.27
2023-02-19T02:10:53.134Z,39.13
2023-02-19T02:13:57.240Z,34.70
2023-02-19T02:17:03.275Z,47.80
2023-02-19T02:20:16.149Z,39.53
2023-02-19T02:23:37.827Z,37.15
2023-02-19T02:27:10.217Z,42.42
2023-02-19T02:30:19.559Z,32.85
2023-02-19T02:33:32.376Z,26.58
2023-02-19T02:36:42.285Z,28.17
2023-02-19T02:39:49.342Z,27.77
2023-02-19T02:42:53.751Z,22.98
2023-02-19T02:45:58.317Z,19.98
2023-02-19T02:49:20.636Z,17.30
2023-02-19T02:52:42.520Z,13.10
2023-02-19T02:55:49.271Z,25.13
2023-02-19T02:58:54.467Z,23.00
2023-02-19T03:02:12.587Z,26.58
2023-02-19T03:05:44.101Z,24.17
2023-02-19T03:09:07.221Z,25.00
2023-02-19T03:12:36.671Z,19.45
2023-02-19T03:16:12.297Z,21.40
2023-02-19T03:19:20.082Z,22.27
2023-02-19T03:22:35.760Z,23.25
2023-02-19T03:25:58.169Z,22.37
2023-02-19T03:29:23.980Z,21.48
2023-02-19T03:32:55.529Z,25.83
2023-02-19T03:36:08.197Z,32.13
2023-02-19T03:39:16.438Z,18.90
2023-02-19T03:42:46.174Z,22.63
2023-02-19T03:46:14.713Z,22.67
2023-02-19T03:49:36.144Z,25.00
2023-02-19T03:52:47.644Z,19.67
2023-02-19T03:56:06.840Z,25.92
2023-02-19T03:59:17.714Z,20.03
2023-02-19T04:02:39.496Z,18.05
2023-02-19T04:05:50.960Z,22.92
2023-02-19T04:09:02.678Z,16.85
2023-02-19T04:12:08.158Z,38.83
2023-02-19T04:15:17.308Z,28.23
2023-02-19T04:18:25.906Z,14.40
2023-02-19T04:21:30.360Z,42.25
2023-02-19T04:24:39.920Z,19.33
2023-02-19T04:27:46.549Z,9.98
2023-02-19T04:30:50.758Z,16.67
2023-02-19T04:33:54.466Z,18.50
2023-02-19T04:36:58.241Z,8.68
2023-02-19T04:40:02.784Z,14.38
2023-02-19T04:43:06.583Z,10.35
2023-02-19T04:46:10.552Z,11.23
2023-02-19T04:49:14.308Z,8.38
2023-02-19T04:52:18.482Z,7.30
2023-02-19T04:55:21.558Z,9.38
2023-02-19T04:58:25.049Z,11.27
2023-02-19T05:01:28.155Z,21.83
2023-02-19T05:04:32.359Z,8.77
2023-02-19T05:07:36.138Z,8.07
2023-02-19T05:10:39.509Z,12.40
2023-02-19T05:13:42.500Z,14.07
2023-02-19T05:16:45.830Z,15.80
2023-02-19T05:19:49.444Z,11.15
2023-02-19T05:22:52.674Z,11.50
2023-02-19T05:25:55.898Z,14.18
2023-02-19T05:28:59.288Z,11.35
2023-02-19T05:32:02.391Z,15.17
2023-02-19T05:35:06.863Z,10.98
2023-02-19T05:38:10.862Z,7.40
2023-02-19T05:41:16.231Z,11.30
2023-02-19T05:44:19.512Z,24.85
2023-02-19T05:47:23.637Z,18.67
2023-02-19T05:50:27.704Z,15.20
2023-02-19T05:53:32.584Z,13.55
2023-02-19T05:56:37.969Z,19.30
2023-02-19T05:59:41.230Z,15.40
2023-02-19T06:02:44.987Z,13.47
2023-02-19T06:05:48.639Z,18.92
2023-02-19T06:08:52.248Z,12.35
2023-02-19T06:11:55.674Z,18.05
2023-02-19T06:14:59.481Z,6.05
2023-02-19T06:18:03.378Z,9.87
2023-02-19T06:21:09.350Z,6.60
2023-02-19T06:24:13.279Z,8.40
2023-02-19T06:27:16.496Z,18.42
2023-02-19T06:30:20.768Z,14.65
2023-02-19T06:33:24.494Z,7.40
2023-02-19T06:36:28.533Z,19.90
2023-02-19T06:39:32.274Z,10.73
2023-02-19T06:42:36.364Z,9.35
2023-02-19T06:45:40.184Z,9.05
2023-02-19T06:48:45.858Z,6.77
2023-02-19T06:51:48.975Z,5.28
2023-02-19T06:54:53.062Z,19.65
2023-02-19T06:57:56.115Z,16.13
2023-02-19T07:01:00.145Z,8.60
2023-02-19T07:04:04.112Z,10.13
2023-02-19T07:07:07.522Z,8.98
2023-02-19T07:10:11.161Z,13.05
2023-02-19T07:13:15.256Z,23.83
2023-02-19T07:16:18.678Z,14.77
2023-02-19T07:19:22.116Z,12.07
2023-02-19T07:22:25.156Z,9.57
2023-02-19T07:25:28.870Z,14.20
2023-02-19T07:28:32.652Z,10.68
2023-02-19T07:31:36.084Z,9.45
2023-02-19T07:34:39.164Z,16.80
2023-02-19T07:37:42.585Z,21.98
2023-02-19T07:40:56.095Z,20.38
2023-02-19T07:43:59.595Z,12.82
2023-02-19T07:47:03.293Z,7.75
2023-02-19T07:50:07.329Z,8.40
2023-02-19T07:53:11.138Z,11.68
2023-02-19T07:56:15.082Z,7.20
2023-02-19T07:59:22.090Z,7.40
2023-02-19T08:02:44.476Z,11.80
2023-02-19T08:05:50.346Z,13.47
2023-02-19T08:08:57.011Z,10.90
2023-02-19T08:12:20.214Z,15.05
2023-02-19T08:15:23.871Z,13.48
2023-02-19T08:18:28.598Z,17.75
2023-02-19T08:21:34.195Z,17.10
2023-02-19T08:24:41.788Z,16.27
2023-02-19T08:27:45.403Z,12.98
2023-02-19T08:30:49.391Z,15.38
2023-02-19T08:33:52.769Z,12.50
2023-02-19T08:36:55.746Z,14.13
2023-02-19T08:39:59.366Z,17.00
2023-02-19T08:43:11.001Z,15.88
2023-02-19T08:46:14.709Z,25.50
2023-02-19T08:49:18.186Z,21.90
2023-02-19T08:52:21.896Z,30.30
2023-02-19T08:55:24.985Z,24.63
2023-02-19T08:58:28.918Z,31.13
2023-02-19T09:01:32.810Z,29.27
2023-02-19T09:04:38.327Z,24.42
2023-02-19T09:07:42.417Z,20.33
2023-02-19T09:10:45.834Z,16.83
2023-02-19T09:13:49.026Z,19.27
2023-02-19T09:16:53.075Z,22.52
2023-02-19T09:19:56.840Z,37.95
2023-02-19T09:23:01.334Z,29.47
2023-02-19T09:26:09.056Z,23.52
2023-02-19T09:29:12.749Z,21.75
2023-02-19T09:32:17.497Z,25.98
2023-02-19T09:35:22.419Z,26.25
2023-02-19T09:38:26.470Z,43.00
2023-02-19T09:41:36.012Z,27.05
2023-02-19T09:44:43.123Z,43.53
2023-02-19T09:47:47.237Z,39.78
2023-02-19T09:50:52.021Z,33.20
2023-02-19T09:53:58.039Z,43.43
2023-02-19T09:57:05.191Z,40.10
2023-02-19T10:00:29.393Z,56.72
2023-02-19T10:03:43.744Z,55.35
2023-02-19T10:06:48.634Z,37.47
2023-02-19T10:10:01.659Z,50.93
2023-02-19T10:13:24.306Z,36.50
2023-02-19T10:16:29.629Z,42.42
2023-02-19T10:19:35.561Z,43.92
2023-02-19T10:22:39.623Z,46.50
2023-02-19T10:25:52.766Z,40.20
2023-02-19T10:28:56.086Z,26.92
2023-02-19T10:32:19.258Z,42.00
2023-02-19T10:35:22.337Z,41.42
2023-02-19T10:38:32.894Z,46.80
2023-02-19T10:41:44.136Z,32.27
2023-02-19T10:45:02.773Z,27.83
2023-02-19T10:48:08.184Z,29.23
2023-02-19T10:51:13.723Z,36.78
2023-02-19T10:54:18.733Z,45.72
2023-02-19T10:57:31.232Z,55.27
2023-02-19T11:00:34.934Z,59.72
2023-02-19T11:03:38.780Z,80.28
2023-02-19T11:06:42.406Z,39.75
2023-02-19T11:09:48.492Z,46.35
2023-02-19T11:12:53.733Z,49.83
2023-02-19T11:15:59.133Z,41.20
2023-02-19T11:19:02.225Z,55.47
2023-02-19T11:22:39.187Z,43.03
2023-02-19T11:25:53.495Z,56.38
2023-02-19T11:28:59.435Z,47.50
2023-02-19T11:32:27.359Z,42.80
2023-02-19T11:35:30.990Z,43.22
2023-02-19T11:38:35.913Z,43.72
2023-02-19T11:41:47.979Z,48.95
2023-02-19T11:45:30.651Z,40.27
2023-02-19T11:48:59.982Z,44.47
2023-02-19T11:52:03.333Z,28.92
2023-02-19T11:55:24.765Z,41.05
2023-02-19T11:59:16.922Z,41.80
2023-02-19T12:02:32.473Z,31.77
2023-02-19T12:05:57.127Z,37.13
2023-02-19T12:09:33.462Z,37.17
2023-02-19T12:12:43.107Z,38.10
2023-02-19T12:16:14.737Z,41.90
2023-02-19T12:19:45.146Z,52.77
2023-02-19T12:23:14.559Z,43.45
2023-02-19T12:26:23.968Z,46.92
2023-02-19T12:29:42.606Z,41.97
2023-02-19T12:33:12.088Z,36.05
2023-02-19T12:36:21.249Z,51.97
2023-02-19T12:39:46.446Z,42.75
2023-02-19T12:42:58.377Z,40.65
2023-02-19T12:46:05.005Z,38.05
2023-02-19T12:49:15.201Z,39.85
2023-02-19T12:52:32.884Z,39.03
2023-02-19T12:55:45.856Z,41.63
2023-02-19T12:59:00.300Z,40.55
2023-02-19T13:02:22.326Z,38.65
2023-02-19T13:05:37.900Z,36.00
2023-02-19T13:09:05.989Z,38.73
2023-02-19T13:12:21.454Z,48.60
2023-02-19T13:15:32.402Z,22.17
2023-02-19T13:18:55.704Z,27.20
2023-02-19T13:22:54.131Z,36.80
2023-02-19T13:26:03.810Z,39.60
2023-02-19T13:29:20.348Z,46.88
2023-02-19T13:33:08.321Z,41.80
2023-02-19T13:36:27.038Z,39.38
2023-02-19T13:39:31.134Z,27.80
2023-02-19T13:42:38.222Z,34.22
2023-02-19T13:45:44.847Z,29.52
2023-02-19T13:48:49.316Z,38.22
2023-02-19T13:52:34.001Z,34.05
2023-02-19T13:55:43.866Z,40.90
2023-02-19T13:59:13.251Z,35.00
2023-02-19T14:02:23.057Z,32.47
2023-02-19T14:05:59.872Z,32.22
2023-02-19T14:09:03.600Z,28.08
2023-02-19T14:12:15.427Z,42.47
2023-02-19T14:15:42.609Z,29.15
2023-02-19T14:18:47.259Z,35.55
2023-02-19T14:21:51.148Z,39.72
2023-02-19T14:24:55.464Z,36.30
2023-02-19T14:28:02.591Z,25.80
2023-02-19T14:31:31.156Z,26.85
2023-02-19T14:34:35.337Z,33.88
2023-02-19T14:37:39.158Z,27.73
2023-02-19T14:40:44.961Z,32.15
2023-02-19T14:43:51.660Z,39.05
2023-02-19T14:47:06.161Z,30.73
2023-02-19T14:50:16.425Z,35.15
2023-02-19T14:53:21.169Z,37.17
2023-02-19T14:56:28.576Z,36.13
2023-02-19T14:59:32.490Z,34.05
2023-02-19T15:02:43.447Z,27.60
2023-02-19T15:05:47.307Z,35.07
2023-02-19T15:08:55.343Z,29.58
2023-02-19T15:11:59.578Z,32.95
2023-02-19T15:15:06.312Z,30.98
2023-02-19T15:18:22.377Z,30.97
2023-02-19T15:21:28.659Z,34.05
2023-02-19T15:24:31.831Z,34.42
2023-02-19T15:27:36.061Z,32.58
2023-02-19T15:30:40.032Z,50.23
2023-02-19T15:33:51.771Z,32.75
2023-02-19T15:37:01.747Z,26.00
2023-02-19T15:40:08.264Z,43.33
2023-02-19T15:43:25.158Z,43.45
2023-02-19T15:46:29.176Z,37.17
2023-02-19T15:50:03.285Z,47.05
2023-02-19T15:53:30.214Z,29.45
2023-02-19T15:56:36.388Z,33.88
2023-02-19T15:59:44.562Z,31.97
2023-02-19T16:02:49.190Z,36.22
2023-02-19T16:06:11.955Z,31.55
2023-02-19T16:09:24.631Z,36.88
2023-02-19T16:12:30.474Z,40.80
2023-02-19T16:15:34.868Z,34.20
2023-02-19T16:18:38.826Z,35.95
2023-02-19T16:21:45.290Z,37.93
2023-02-19T16:24:54.834Z,39.65
2023-02-19T16:27:59.273Z,28.27
2023-02-19T16:31:14.445Z,46.08
2023-02-19T16:34:29.206Z,34.60
2023-02-19T16:37:40.875Z,25.13
2023-02-19T16:40:54.870Z,37.72
2023-02-19T16:43:58.670Z,31.70
2023-02-19T16:47:18.168Z,28.57
2023-02-19T16:50:25.308Z,39.45
2023-02-19T16:53:29.924Z,39.58
2023-02-19T16:56:33.962Z,32.55
2023-02-19T16:59:37.877Z,32.23
2023-02-19T17:02:41.615Z,41.00
2023-02-19T17:05:44.916Z,50.42
2023-02-19T17:08:49.084Z,35.70
2023-02-19T17:11:52.758Z,45.70
2023-02-19T17:14:56.031Z,39.20
2023-02-19T17:17:59.103Z,32.80
2023-02-19T17:21:08.157Z,36.72
2023-02-19T17:24:12.372Z,22.83
2023-02-19T17:27:15.986Z,25.85
2023-02-19T17:30:31.353Z,35.97
2023-02-19T17:33:35.489Z,31.75
2023-02-19T17:36:39.536Z,17.10
2023-02-19T17:39:43.677Z,22.52
2023-02-19T17:42:47.373Z,27.10
2023-02-19T17:45:52.339Z,22.42
2023-02-19T17:48:56.288Z,28.90
2023-02-19T17:52:00.301Z,30.63
2023-02-19T17:55:03.243Z,29.23
2023-02-19T17:58:07.328Z,16.50
2023-02-19T18:01:10.824Z,21.40
2023-02-19T18:04:15.124Z,19.52
2023-02-19T18:07:18.485Z,29.40
2023-02-19T18:10:26.816Z,71.80
2023-02-19T18:13:30.624Z,86.87
2023-02-19T18:16:34.323Z,190.88
2023-02-19T18:19:37.418Z,126.88
2023-02-19T18:22:43.482Z,83.63
2023-02-19T18:25:47.723Z,48.87
2023-02-19T18:28:51.909Z,98.10
2023-02-19T18:31:55.863Z,75.65
2023-02-19T18:35:00.928Z,138.63
2023-02-19T18:38:04.654Z,47.43
2023-02-19T18:41:12.687Z,93.40
2023-02-19T18:44:25.020Z,64.20
2023-02-19T18:47:28.121Z,52.88
2023-02-19T18:50:31.217Z,27.17
2023-02-19T18:53:34.419Z,163.50
2023-02-19T18:56:42.941Z,245.18
2023-02-19T18:59:46.574Z,275.73
2023-02-19T19:02:51.318Z,245.13
2023-02-19T19:05:55.713Z,239.68
2023-02-19T19:09:01.927Z,226.82
2023-02-19T19:12:05.658Z,225.07
2023-02-19T19:15:09.127Z,237.52
2023-02-19T19:18:13.157Z,277.40
2023-02-19T19:21:16.617Z,288.98
2023-02-19T19:24:20.969Z,278.63
2023-02-19T19:27:23.982Z,240.23
2023-02-19T19:30:27.289Z,220.60
2023-02-19T19:33:30.661Z,289.40
2023-02-19T19:36:34.600Z,311.80
2023-02-19T19:39:37.886Z,227.05
2023-02-19T19:42:43.007Z,280.42
2023-02-19T19:45:47.779Z,255.63
2023-02-19T19:48:53.393Z,272.20
2023-02-19T19:52:01.455Z,232.05
2023-02-19T19:55:06.365Z,174.20
2023-02-19T19:58:09.290Z,127.95
2023-02-19T20:01:13.607Z,138.30
2023-02-19T20:04:18.190Z,115.97
2023-02-19T20:07:22.305Z,129.65
2023-02-19T20:10:25.810Z,132.73
2023-02-19T20:13:31.507Z,108.55
2023-02-19T20:16:35.132Z,93.43
2023-02-19T20:19:38.573Z,71.25
2023-02-19T20:22:42.048Z,140.88
2023-02-19T20:25:45.331Z,146.63
2023-02-19T20:28:48.945Z,103.47
2023-02-19T20:31:52.988Z,86.15
2023-02-19T20:34:56.684Z,101.88
2023-02-19T20:38:00.846Z,114.17
2023-02-19T20:41:04.265Z,126.55
2023-02-19T20:44:08.266Z,88.43
2023-02-19T20:47:12.452Z,120.30
2023-02-19T20:50:19.686Z,130.02
2023-02-19T20:53:22.649Z,153.55
2023-02-19T20:56:26.519Z,91.68
2023-02-19T20:59:35.435Z,106.97
2023-02-19T21:02:39.411Z,189.95
2023-02-19T21:05:43.630Z,103.35
2023-02-19T21:08:47.166Z,151.10
2023-02-19T21:11:51.578Z,131.10
2023-02-19T21:14:55.003Z,142.35
2023-02-19T21:17:57.962Z,121.40
2023-02-19T21:21:01.884Z,95.38
2023-02-19T21:24:06.502Z,200.20
2023-02-19T21:27:10.491Z,103.93
2023-02-19T21:30:13.892Z,135.43
2023-02-19T21:33:17.773Z,82.72
2023-02-19T21:36:21.472Z,230.15
2023-02-19T21:39:26.202Z,60.53
2023-02-19T21:42:29.224Z,116.35
2023-02-19T21:45:33.460Z,133.77
2023-02-19T21:48:37.088Z,122.13
2023-02-19T21:51:42.271Z,126.53
2023-02-19T21:54:45.231Z,101.35
2023-02-19T21:57:48.885Z,95.07
2023-02-19T22:00:51.952Z,65.35
2023-02-19T22:03:55.955Z,55.70
2023-02-19T22:07:00.057Z,79.78
2023-02-19T22:10:04.324Z,90.17
2023-02-19T22:13:08.007Z,51.58
2023-02-19T22:16:11.704Z,78.25
2023-02-19T22:19:16.020Z,62.63
2023-02-19T22:22:19.158Z,52.08
2023-02-19T22:25:22.392Z,60.70
2023-02-19T22:28:25.640Z,29.55
2023-02-19T22:31:29.562Z,33.97
2023-02-19T22:34:32.578Z,32.35
2023-02-19T22:37:36.654Z,26.55
2023-02-19T22:40:39.689Z,46.90
2023-02-19T22:43:43.712Z,56.55
2023-02-19T22:46:55.190Z,35.00
2023-02-19T22:49:58.112Z,45.57
2023-02-19T22:53:02.045Z,52.58
2023-02-19T22:56:05.896Z,53.08
2023-02-19T22:59:09.686Z,49.38
2023-02-19T23:02:13.436Z,73.28
2023-02-19T23:05:17.454Z,62.80
2023-02-19T23:08:21.254Z,131.45
2023-02-19T23:11:30.272Z,114.30
2023-02-19T23:14:33.806Z,83.55
2023-02-19T23:17:37.497Z,118.57
2023-02-19T23:20:40.502Z,95.63
2023-02-19T23:23:45.564Z,95.45
2023-02-19T23:26:52.106Z,120.03
2023-02-19T23:29:56.939Z,89.13
2023-02-19T23:33:00.800Z,113.45
2023-02-19T23:36:05.812Z,122.38
2023-02-19T23:39:11.761Z,151.95
2023-02-19T23:42:17.329Z,126.27
2023-02-19T23:45:21.359Z,213.20
2023-02-19T23:48:25.091Z,145.82
2023-02-19T23:51:29.153Z,92.50
2023-02-19T23:54:32.520Z,123.32
2023-02-19T23:57:36.502Z,42.60
